createdAt,value
2023-01-11T00:01:08.622Z,4.64
2023-01-11T00:03:36.411Z,4.57
2023-01-11T00:06:04.944Z,4.74
2023-01-11T00:08:32.660Z,4.65
2023-01-11T00:11:02.184Z,4.16
2023-01-11T00:13:31.030Z,4.81
2023-01-11T00:16:06.943Z,3.74
2023-01-11T00:18:36.173Z,3.71
2023-01-11T00:21:05.725Z,4.10
2023-01-11T00:23:37.655Z,4.33
2023-01-11T00:26:08.515Z,4.29
2023-01-11T00:28:36.255Z,4.60
2023-01-11T00:31:04.121Z,4.53
2023-01-11T00:33:31.911Z,4.78
2023-01-11T00:35:59.529Z,4.79
2023-01-11T00:38:46.030Z,5.26
2023-01-11T00:41:34.058Z,4.73
2023-01-11T00:44:21.691Z,4.69
2023-01-11T00:47:07.879Z,4.13
2023-01-11T00:49:35.975Z,4.27
2023-01-11T00:52:09.597Z,4.69
2023-01-11T00:54:39.352Z,4.34
2023-01-11T00:57:08.154Z,4.20
2023-01-11T00:59:39.322Z,3.68
2023-01-11T01:02:07.803Z,3.46
2023-01-11T01:04:35.553Z,3.87
2023-01-11T01:07:04.211Z,4.14
2023-01-11T01:09:32.293Z,4.52
2023-01-11T01:12:02.081Z,4.70
2023-01-11T01:14:31.289Z,4.44
2023-01-11T01:17:04.137Z,4.42
2023-01-11T01:19:31.878Z,4.46
2023-01-11T01:21:59.770Z,4.47
2023-01-11T01:24:28.908Z,4.10
2023-01-11T01:26:59.564Z,4.59
2023-01-11T01:29:27.235Z,4.45
2023-01-11T01:31:54.847Z,4.07
2023-01-11T01:34:22.618Z,4.38
2023-01-11T01:36:50.176Z,3.77
2023-01-11T01:39:18.035Z,4.17
2023-01-11T01:41:45.713Z,3.60
2023-01-11T01:44:55.577Z,3.67
2023-01-11T01:47:46.718Z,3.72
2023-01-11T01:50:25.356Z,4.37
2023-01-11T01:53:03.997Z,3.83
2023-01-11T01:55:37.461Z,4.09
2023-01-11T01:58:12.793Z,4.00
2023-01-11T02:00:44.172Z,3.65
2023-01-11T02:03:19.138Z,4.30
2023-01-11T02:05:48.568Z,4.53
2023-01-11T02:08:35.486Z,4.62
2023-01-11T02:11:24.709Z,4.14
2023-01-11T02:13:52.339Z,4.30
2023-01-11T02:16:20.111Z,4.03
2023-01-11T02:18:47.891Z,4.42
2023-01-11T02:21:44.724Z,3.87
2023-01-11T02:24:52.412Z,4.29
2023-01-11T02:27:56.828Z,3.99
2023-01-11T02:30:58.180Z,4.26
2023-01-11T02:33:54.735Z,3.90
2023-01-11T02:36:44.444Z,4.06
2023-01-11T02:39:49.393Z,4.25
2023-01-11T02:43:07.170Z,4.58
2023-01-11T02:46:03.793Z,4.28
2023-01-11T02:49:05.341Z,4.37
2023-01-11T02:51:47.203Z,4.39
2023-01-11T02:54:18.629Z,3.73
2023-01-11T02:56:49.830Z,3.60
2023-01-11T02:59:24.096Z,3.96
2023-01-11T03:01:55.578Z,3.88
2023-01-11T03:04:29.818Z,4.31
2023-01-11T03:07:27.581Z,4.12
2023-01-11T03:10:25.281Z,4.38
2023-01-11T03:12:59.521Z,3.94
2023-01-11T03:16:08.666Z,3.94
2023-01-11T03:18:46.860Z,3.83
2023-01-11T03:21:23.239Z,4.16
2023-01-11T03:24:10.923Z,4.57
2023-01-11T03:27:29.826Z,4.09
2023-01-11T03:30:09.419Z,4.16
2023-01-11T03:32:51.823Z,5.00
2023-01-11T03:35:34.024Z,5.08
2023-01-11T03:38:34.386Z,4.55
2023-01-11T03:41:07.452Z,3.87
2023-01-11T03:43:39.964Z,3.85
2023-01-11T03:46:14.918Z,3.81
2023-01-11T03:48:51.303Z,3.85
2023-01-11T03:51:27.279Z,3.95
2023-01-11T03:54:01.128Z,4.27
2023-01-11T03:57:13.050Z,3.93
2023-01-11T03:59:41.319Z,3.96
2023-01-11T04:02:24.387Z,4.26
2023-01-11T04:04:52.243Z,3.92
2023-01-11T04:07:20.049Z,4.03
2023-01-11T04:09:47.681Z,3.77
2023-01-11T04:12:15.232Z,4.03
2023-01-11T04:14:43.065Z,4.32
2023-01-11T04:17:10.700Z,4.39
2023-01-11T04:19:38.335Z,4.61
2023-01-11T04:22:05.969Z,4.45
2023-01-11T04:24:33.608Z,4.02
2023-01-11T04:27:01.299Z,4.06
2023-01-11T04:29:28.931Z,4.59
2023-01-11T04:31:56.533Z,4.54
2023-01-11T04:34:24.213Z,5.49
2023-01-11T04:36:51.748Z,4.83
2023-01-11T04:39:19.438Z,4.85
2023-01-11T04:42:05.379Z,4.53
2023-01-11T04:44:33.167Z,4.95
2023-01-11T04:47:00.805Z,4.46
2023-01-11T04:49:28.415Z,4.35
2023-01-11T04:51:56.112Z,4.02
2023-01-11T04:54:23.684Z,4.30
2023-01-11T04:56:51.311Z,5.25
2023-01-11T04:59:19.026Z,5.28
2023-01-11T05:01:46.574Z,5.23
2023-01-11T05:04:14.258Z,4.78
2023-01-11T05:06:42.153Z,4.25
2023-01-11T05:09:17.870Z,4.39
2023-01-11T05:11:45.967Z,4.54
2023-01-11T05:14:19.596Z,4.88
2023-01-11T05:16:47.619Z,4.15
2023-01-11T05:19:15.333Z,4.17
2023-01-11T05:21:43.222Z,4.99
2023-01-11T05:24:14.142Z,4.92
2023-01-11T05:26:45.041Z,4.35
2023-01-11T05:29:20.359Z,4.05
2023-01-11T05:31:48.860Z,4.04
2023-01-11T05:34:17.894Z,4.25
2023-01-11T05:36:45.652Z,4.57
2023-01-11T05:39:14.453Z,5.03
2023-01-11T05:41:42.098Z,4.39
2023-01-11T05:44:32.298Z,4.20
2023-01-11T05:47:00.237Z,4.21
2023-01-11T05:49:27.814Z,4.74
2023-01-11T05:51:55.541Z,4.60
2023-01-11T05:54:23.198Z,4.61
2023-01-11T05:56:50.808Z,4.36
2023-01-11T05:59:18.408Z,4.24
2023-01-11T06:01:46.264Z,4.17
2023-01-11T06:04:14.468Z,4.70
2023-01-11T06:06:42.152Z,4.64
2023-01-11T06:09:09.935Z,4.64
2023-01-11T06:11:37.579Z,5.17
2023-01-11T06:14:05.152Z,4.83
2023-01-11T06:16:32.831Z,4.84
2023-01-11T06:19:00.646Z,4.55
2023-01-11T06:21:28.390Z,5.00
2023-01-11T06:23:55.999Z,5.47
2023-01-11T06:26:24.142Z,5.17
2023-01-11T06:28:52.078Z,4.73
2023-01-11T06:31:20.175Z,4.91
2023-01-11T06:33:47.882Z,4.57
2023-01-11T06:36:16.021Z,4.90
2023-01-11T06:38:44.711Z,5.47
2023-01-11T06:41:13.131Z,4.99
2023-01-11T06:43:41.972Z,4.75
2023-01-11T06:46:15.228Z,5.24
2023-01-11T06:48:44.255Z,5.37
2023-01-11T06:51:13.038Z,4.27
2023-01-11T06:53:42.351Z,4.63
2023-01-11T06:56:17.549Z,4.40
2023-01-11T06:58:47.002Z,4.77
2023-01-11T07:01:15.584Z,5.22
2023-01-11T07:03:43.748Z,5.42
2023-01-11T07:06:11.449Z,6.04
2023-01-11T07:08:39.026Z,4.92
2023-01-11T07:11:06.859Z,4.87
2023-01-11T07:13:35.229Z,4.82
2023-01-11T07:16:02.912Z,5.24
2023-01-11T07:18:31.708Z,5.09
2023-01-11T07:20:59.453Z,5.76
2023-01-11T07:23:27.025Z,6.00
2023-01-11T07:25:55.387Z,5.13
2023-01-11T07:28:22.998Z,5.78
2023-01-11T07:30:58.523Z,5.28
2023-01-11T07:33:27.397Z,5.57
2023-01-11T07:35:55.186Z,5.05
2023-01-11T07:38:23.284Z,5.19
2023-01-11T07:40:51.033Z,4.95
2023-01-11T07:43:19.953Z,5.19
2023-01-11T07:45:50.137Z,5.42
2023-01-11T07:48:27.309Z,5.25
2023-01-11T07:50:55.252Z,5.27
2023-01-11T07:53:25.912Z,5.23
2023-01-11T07:55:56.920Z,5.15
2023-01-11T07:58:24.831Z,5.43
2023-01-11T08:00:52.590Z,5.87
2023-01-11T08:03:20.425Z,5.49
2023-01-11T08:05:52.399Z,4.95
2023-01-11T08:08:20.928Z,4.95
2023-01-11T08:11:08.829Z,5.38
2023-01-11T08:13:55.171Z,5.60
2023-01-11T08:16:23.268Z,5.75
2023-01-11T08:18:52.507Z,5.64
2023-01-11T08:21:21.378Z,5.73
2023-01-11T08:23:49.047Z,5.19
2023-01-11T08:26:17.907Z,6.01
2023-01-11T08:28:46.439Z,6.04
2023-01-11T08:31:14.293Z,6.10
2023-01-11T08:33:42.240Z,5.97
2023-01-11T08:36:12.665Z,5.94
2023-01-11T08:38:40.590Z,5.69
2023-01-11T08:41:11.012Z,5.25
2023-01-11T08:43:39.530Z,5.86
2023-01-11T08:46:08.680Z,5.59
2023-01-11T08:48:36.692Z,6.34
2023-01-11T08:51:04.465Z,6.39
2023-01-11T08:53:32.221Z,6.38
2023-01-11T08:56:00.206Z,6.32
2023-01-11T08:58:27.903Z,5.59
2023-01-11T09:01:00.134Z,5.84
2023-01-11T09:03:28.620Z,5.29
2023-01-11T09:05:56.915Z,6.48
2023-01-11T09:08:26.286Z,6.66
2023-01-11T09:10:54.246Z,6.26
2023-01-11T09:13:22.297Z,6.83
2023-01-11T09:15:49.966Z,6.94
2023-01-11T09:18:17.680Z,6.32
2023-01-11T09:20:45.238Z,6.95
2023-01-11T09:23:12.893Z,7.45
2023-01-11T09:25:40.418Z,6.86
2023-01-11T09:28:08.404Z,7.00
2023-01-11T09:30:38.922Z,6.84
2023-01-11T09:33:06.995Z,7.59
2023-01-11T09:35:35.671Z,7.59
2023-01-11T09:38:03.320Z,6.57
2023-01-11T09:41:01.661Z,6.31
2023-01-11T09:43:31.149Z,6.72
2023-01-11T09:46:08.366Z,6.63
2023-01-11T09:48:53.056Z,7.05
2023-01-11T09:51:23.439Z,6.73
2023-01-11T09:53:52.289Z,6.45
2023-01-11T09:56:25.559Z,7.03
2023-01-11T09:59:02.121Z,6.86
2023-01-11T10:01:55.064Z,7.22
2023-01-11T10:04:44.732Z,7.18
2023-01-11T10:07:49.781Z,5.98
2023-01-11T10:18:31.221Z,6.36
2023-01-11T10:18:32.991Z,6.58
2023-01-11T10:20:37.735Z,7.47
2023-01-11T10:23:14.927Z,7.76
2023-01-11T10:25:51.474Z,7.05
2023-01-11T10:28:46.965Z,6.79
2023-01-11T10:31:45.302Z,6.65
2023-01-11T10:34:42.005Z,6.37
2023-01-11T10:37:14.979Z,5.90
2023-01-11T10:40:30.516Z,6.36
2023-01-11T10:43:17.027Z,6.21
2023-01-11T10:45:51.694Z,6.01
2023-01-11T10:48:38.685Z,5.71
2023-01-11T10:51:09.663Z,6.08
2023-01-11T10:53:49.993Z,6.21
2023-01-11T10:57:09.040Z,6.76
2023-01-11T11:00:16.946Z,6.89
2023-01-11T11:03:44.163Z,6.34
2023-01-11T11:06:25.826Z,6.06
2023-01-11T11:09:17.667Z,6.58
2023-01-11T11:11:54.661Z,7.00
2023-01-11T11:14:32.757Z,6.63
2023-01-11T11:17:22.761Z,6.63
2023-01-11T11:19:51.527Z,6.45
2023-01-11T11:22:20.987Z,7.20
2023-01-11T11:25:01.743Z,7.01
2023-01-11T11:27:42.332Z,6.36
2023-01-11T11:30:12.138Z,6.96
2023-01-11T11:32:51.728Z,6.57
2023-01-11T11:35:43.917Z,6.27
2023-01-11T11:38:26.130Z,6.10
2023-01-11T11:41:16.850Z,6.13
2023-01-11T11:43:47.647Z,6.13
2023-01-11T11:46:19.385Z,6.72
2023-01-11T11:49:19.838Z,6.41
2023-01-11T11:51:48.221Z,6.52
2023-01-11T11:54:43.141Z,6.25
2023-01-11T11:57:30.312Z,6.32
2023-01-11T12:00:09.022Z,6.23
2023-01-11T12:02:42.809Z,5.46
2023-01-11T12:05:11.301Z,6.25
2023-01-11T12:07:54.912Z,6.17
2023-01-11T12:10:26.854Z,5.56
2023-01-11T12:12:57.007Z,5.97
2023-01-11T12:15:30.633Z,5.77
2023-01-11T12:18:28.220Z,6.26
2023-01-11T12:20:55.923Z,6.72
2023-01-11T12:23:26.223Z,6.25
2023-01-11T12:26:24.710Z,6.91
2023-01-11T12:29:46.391Z,6.30
2023-01-11T12:32:44.303Z,5.77
2023-01-11T12:35:53.754Z,6.88
2023-01-11T12:38:21.398Z,6.76
2023-01-11T12:41:16.428Z,6.10
2023-01-11T12:44:06.195Z,6.29
2023-01-11T12:47:11.228Z,6.09
2023-01-11T12:50:22.050Z,6.26
2023-01-11T12:52:57.979Z,6.71
2023-01-11T12:56:07.032Z,7.30
2023-01-11T12:58:52.709Z,7.84
2023-01-11T13:02:06.865Z,6.38
2023-01-11T13:05:16.743Z,6.85
2023-01-11T13:07:50.243Z,6.54
2023-01-11T13:11:01.676Z,6.03
2023-01-11T13:14:01.561Z,6.40
2023-01-11T13:17:05.232Z,6.46
2023-01-11T13:19:52.956Z,6.03
2023-01-11T13:22:27.429Z,6.56
2023-01-11T13:24:57.971Z,6.46
2023-01-11T13:27:28.690Z,6.75
2023-01-11T13:29:59.393Z,6.79
2023-01-11T13:32:38.602Z,6.66
2023-01-11T13:35:21.074Z,6.07
2023-01-11T13:38:09.653Z,5.49
2023-01-11T13:40:48.350Z,5.59
2023-01-11T13:43:38.894Z,5.36
2023-01-11T13:46:59.992Z,5.53
2023-01-11T13:50:09.230Z,5.59
2023-01-11T13:52:40.029Z,5.92
2023-01-11T13:55:52.563Z,6.67
2023-01-11T13:58:36.865Z,6.63
2023-01-11T14:01:14.357Z,6.68
2023-01-11T14:03:59.614Z,6.02
2023-01-11T14:06:54.338Z,6.71
2023-01-11T14:10:27.029Z,5.99
2023-01-11T14:13:56.336Z,6.55
2023-01-11T14:17:05.843Z,6.54
2023-01-11T14:19:58.235Z,6.21
2023-01-11T14:22:50.526Z,6.60
2023-01-11T14:25:32.402Z,5.76
2023-01-11T14:28:40.231Z,5.79
2023-01-11T14:31:29.122Z,5.86
2023-01-11T14:34:28.563Z,6.00
2023-01-11T14:37:37.106Z,6.33
2023-01-11T14:40:32.803Z,6.19
2023-01-11T14:43:21.638Z,6.08
2023-01-11T14:46:40.238Z,6.63
2023-01-11T14:49:42.105Z,6.10
2023-01-11T14:52:34.594Z,5.89
2023-01-11T14:55:20.933Z,6.23
2023-01-11T14:57:57.120Z,5.99
2023-01-11T15:00:25.548Z,6.20
2023-01-11T15:03:05.355Z,5.73
2023-01-11T15:05:46.856Z,5.49
2023-01-11T15:08:14.414Z,5.65
2023-01-11T15:10:45.005Z,5.52
2023-01-11T15:13:31.529Z,5.83
2023-01-11T15:16:39.706Z,5.85
2023-01-11T15:19:12.626Z,5.47
2023-01-11T15:21:47.656Z,5.79
2023-01-11T15:24:43.009Z,5.44
2023-01-11T15:27:38.078Z,5.44
2023-01-11T15:30:28.823Z,5.84
2023-01-11T15:33:18.496Z,5.56
2023-01-11T15:36:06.769Z,5.79
2023-01-11T15:38:52.635Z,5.64
2023-01-11T15:41:56.149Z,5.35
2023-01-11T15:45:07.369Z,5.81
2023-01-11T15:48:18.810Z,5.77
2023-01-11T15:50:57.079Z,5.74
2023-01-11T15:53:56.406Z,6.35
2023-01-11T15:57:17.492Z,5.76
2023-01-11T16:00:03.296Z,6.17
2023-01-11T16:02:57.309Z,6.22
2023-01-11T16:05:34.011Z,6.24
2023-01-11T16:08:26.461Z,6.08
2023-01-11T16:11:31.070Z,6.40
2023-01-11T16:14:16.615Z,6.53
2023-01-11T16:16:45.166Z,5.96
2023-01-11T16:19:19.882Z,5.99
2023-01-11T16:21:52.059Z,6.42
2023-01-11T16:24:23.732Z,6.54
2023-01-11T16:26:58.330Z,6.35
2023-01-11T16:29:31.506Z,6.32
2023-01-11T16:32:18.267Z,6.34
2023-01-11T16:34:50.149Z,6.41
2023-01-11T16:37:33.922Z,6.07
2023-01-11T16:40:27.155Z,6.42
2023-01-11T16:43:02.921Z,5.93
2023-01-11T16:45:45.338Z,5.57
2023-01-11T16:48:17.930Z,5.34
2023-01-11T16:51:16.332Z,6.16
2023-01-11T16:53:53.424Z,5.82
2023-01-11T16:56:23.556Z,5.46
2023-01-11T16:59:21.478Z,5.51
2023-01-11T17:01:56.328Z,5.70
2023-01-11T17:04:50.530Z,5.69
2023-01-11T17:07:28.372Z,5.39
2023-01-11T17:10:29.906Z,5.90
2023-01-11T17:13:03.055Z,6.11
2023-01-11T17:15:55.209Z,6.17
2023-01-11T17:18:23.248Z,6.12
2023-01-11T17:20:54.244Z,6.73
2023-01-11T17:23:22.074Z,6.63
2023-01-11T17:25:57.067Z,6.35
2023-01-11T17:28:25.970Z,6.25
2023-01-11T17:31:03.314Z,7.32
2023-01-11T17:33:34.113Z,6.77
2023-01-11T17:36:02.913Z,6.67
2023-01-11T17:38:31.184Z,6.33
2023-01-11T17:41:01.210Z,6.44
2023-01-11T17:43:48.368Z,6.02
2023-01-11T17:46:20.355Z,5.85
2023-01-11T17:48:54.834Z,5.80
2023-01-11T17:51:31.316Z,5.64
2023-01-11T17:53:59.347Z,5.68
2023-01-11T17:56:32.878Z,5.92
2023-01-11T17:59:19.200Z,5.45
2023-01-11T18:01:53.957Z,5.05
2023-01-11T18:04:23.498Z,4.92
2023-01-11T18:06:56.354Z,4.93
2023-01-11T18:09:33.989Z,5.55
2023-01-11T18:12:08.990Z,5.14
2023-01-11T18:14:48.205Z,4.90
2023-01-11T18:17:37.132Z,4.97
2023-01-11T18:20:10.607Z,5.08
2023-01-11T18:22:41.982Z,5.35
2023-01-11T18:25:19.350Z,5.58
2023-01-11T18:27:47.831Z,5.29
2023-01-11T18:30:37.490Z,5.60
2023-01-11T18:33:15.731Z,5.72
2023-01-11T18:35:46.813Z,6.04
2023-01-11T18:38:21.443Z,6.21
2023-01-11T18:40:51.595Z,5.47
2023-01-11T18:43:29.077Z,5.72
2023-01-11T18:45:57.227Z,5.65
2023-01-11T18:48:24.890Z,5.57
2023-01-11T18:50:54.552Z,5.38
2023-01-11T18:53:23.618Z,5.64
2023-01-11T18:55:51.538Z,5.48
2023-01-11T18:58:22.868Z,5.49
2023-01-11T19:00:50.620Z,5.48
2023-01-11T19:03:18.259Z,5.35
2023-01-11T19:05:46.515Z,5.27
2023-01-11T19:08:14.337Z,4.80
2023-01-11T19:10:42.062Z,4.52
2023-01-11T19:13:10.577Z,4.82
2023-01-11T19:15:38.260Z,4.50
2023-01-11T19:18:05.986Z,5.13
2023-01-11T19:20:33.682Z,5.53
2023-01-11T19:23:01.315Z,5.68
2023-01-11T19:25:29.338Z,5.63
2023-01-11T19:27:56.948Z,5.34
2023-01-11T19:30:24.630Z,5.41
2023-01-11T19:32:53.423Z,6.00
2023-01-11T19:35:23.596Z,5.51
2023-01-11T19:37:51.870Z,6.54
2023-01-11T19:40:21.265Z,6.39
2023-01-11T19:42:52.265Z,6.72
2023-01-11T19:45:20.018Z,6.45
2023-01-11T19:47:47.829Z,6.57
2023-01-11T19:50:17.886Z,6.10
2023-01-11T19:52:46.725Z,6.17
2023-01-11T19:55:14.473Z,5.79
2023-01-11T19:57:43.148Z,5.56
2023-01-11T20:00:14.382Z,6.05
2023-01-11T20:02:42.570Z,5.74
2023-01-11T20:05:10.396Z,5.94
2023-01-11T20:07:38.906Z,5.78
2023-01-11T20:10:07.055Z,5.85
2023-01-11T20:12:34.811Z,5.99
2023-01-11T20:15:03.428Z,6.03
2023-01-11T20:17:31.206Z,5.68
2023-01-11T20:19:58.763Z,6.13
2023-01-11T20:22:26.346Z,6.23
2023-01-11T20:24:54.011Z,6.54
2023-01-11T20:27:21.965Z,6.63
2023-01-11T20:29:49.722Z,7.43
2023-01-11T20:32:39.075Z,7.39
2023-01-11T20:35:05.977Z,7.69
2023-01-11T20:37:33.578Z,7.96
2023-01-11T20:40:01.291Z,7.41
2023-01-11T20:42:31.050Z,7.64
2023-01-11T20:44:58.766Z,7.43
2023-01-11T20:47:26.377Z,7.12
2023-01-11T20:49:54.230Z,7.52
2023-01-11T20:52:22.192Z,7.34
2023-01-11T20:54:49.762Z,7.08
2023-01-11T20:57:17.500Z,6.49
2023-01-11T20:59:45.150Z,6.47
2023-01-11T21:02:13.581Z,6.69
2023-01-11T21:04:41.358Z,7.11
2023-01-11T21:07:08.940Z,7.45
2023-01-11T21:09:36.563Z,6.83
2023-01-11T21:12:04.960Z,6.99
2023-01-11T21:14:32.569Z,6.41
2023-01-11T21:17:00.257Z,5.88
2023-01-11T21:19:27.872Z,5.59
2023-01-11T21:21:55.481Z,5.65
2023-01-11T21:24:23.191Z,6.05
2023-01-11T21:26:50.808Z,6.09
2023-01-11T21:29:18.420Z,6.34
2023-01-11T21:31:46.117Z,6.19
2023-01-11T21:34:15.646Z,6.07
2023-01-11T21:36:43.793Z,6.14
2023-01-11T21:39:14.274Z,6.06
2023-01-11T21:41:54.998Z,5.89
2023-01-11T21:44:28.838Z,5.92
2023-01-11T21:46:56.657Z,6.26
2023-01-11T21:49:24.343Z,6.72
2023-01-11T21:51:52.736Z,6.27
2023-01-11T21:54:20.756Z,6.32
2023-01-11T21:56:49.566Z,5.48
2023-01-11T21:59:17.344Z,5.76
2023-01-11T22:01:46.173Z,5.96
2023-01-11T22:04:18.584Z,5.83
2023-01-11T22:06:51.160Z,5.95
2023-01-11T22:09:20.302Z,6.01
2023-01-11T22:11:47.894Z,5.75
2023-01-11T22:14:15.694Z,5.77
2023-01-11T22:16:43.334Z,5.65
2023-01-11T22:19:11.003Z,5.02
2023-01-11T22:21:38.740Z,5.13
2023-01-11T22:24:10.372Z,5.40
2023-01-11T22:26:39.022Z,5.23
2023-01-11T22:29:17.716Z,5.33
2023-01-11T22:31:55.077Z,5.15
2023-01-11T22:34:23.531Z,5.28
2023-01-11T22:36:51.276Z,5.23
2023-01-11T22:39:21.821Z,5.71
2023-01-11T22:41:50.016Z,5.75
2023-01-11T22:44:18.529Z,5.51
2023-01-11T22:46:46.950Z,5.22
2023-01-11T22:49:15.779Z,5.01
2023-01-11T22:51:44.208Z,5.47
2023-01-11T22:54:12.496Z,4.81
2023-01-11T22:56:40.829Z,5.09
2023-01-11T22:59:09.859Z,5.38
2023-01-11T23:01:40.546Z,5.34
2023-01-11T23:04:12.690Z,5.41
2023-01-11T23:06:42.043Z,5.04
2023-01-11T23:09:17.212Z,4.71
2023-01-11T23:12:04.359Z,5.08
2023-01-11T23:14:33.414Z,5.05
2023-01-11T23:17:07.344Z,4.47
2023-01-11T23:19:38.734Z,4.74
2023-01-11T23:22:08.343Z,4.96
2023-01-11T23:24:37.574Z,4.77
2023-01-11T23:27:05.398Z,4.29
2023-01-11T23:29:33.115Z,4.68
2023-01-11T23:32:00.912Z,4.62
2023-01-11T23:34:28.566Z,4.78
2023-01-11T23:36:56.190Z,4.63
2023-01-11T23:39:23.922Z,4.20
2023-01-11T23:42:10.485Z,3.89
2023-01-11T23:44:38.248Z,3.91
2023-01-11T23:47:21.455Z,4.61
2023-01-11T23:49:52.330Z,4.21
2023-01-11T23:52:23.618Z,4.10
2023-01-11T23:54:51.993Z,3.94
2023-01-11T23:57:21.025Z,3.82
2023-01-11T23:59:48.718Z,4.17
